Time;durP1;ratioP1;P1;durP2;ratioP2;P2;SDS_P1;SDS_P2;PMS_P1;PMS_P2;Temp;Humidity;BMP_temperature;BMP_pressure;BME280_temperature;BME280_humidity;BME280_pressure;Samples;Min_cycle;Max_cycle;Signal;HPM_P1;HPM_P2
2022/12/06 00:01:55;;;;;;;44.75;25.23;;;;;;;10.36;78.67;101375.97;4925533;28;20535;-81
2022/12/06 00:04:28;;;;;;;48.63;25.38;;;;;;;10.20;79.27;101359.50;4944829;28;20082;-80
2022/12/06 00:06:57;;;;;;;44.05;23.88;;;;;;;10.17;78.68;101333.19;4937685;28;20043;-80
2022/12/06 00:09:27;;;;;;;43.88;24.20;;;;;;;10.47;78.55;101377.84;4922953;28;20168;-80
2022/12/06 00:11:59;;;;;;;36.30;21.75;;;;;;;10.15;77.78;101320.06;4939059;28;20490;-79
2022/12/06 00:14:26;;;;;;;34.83;21.17;;;;;;;10.54;77.84;101367.59;4923526;28;20504;-80
2022/12/06 00:16:55;;;;;;;38.97;23.40;;;;;;;10.46;77.23;101370.81;4921713;28;20047;-79
2022/12/06 00:19:23;;;;;;;34.30;21.17;;;;;;;10.06;77.83;101315.44;4922561;28;20059;-80
2022/12/06 00:21:54;;;;;;;35.42;19.98;;;;;;;10.39;77.89;101373.09;4940007;28;20086;-80
2022/12/06 00:24:22;;;;;;;38.13;20.02;;;;;;;10.45;78.19;101371.78;4938051;28;20464;-81
2022/12/06 00:26:49;;;;;;;37.03;22.92;;;;;;;10.26;78.38;101341.28;4920107;29;20154;-79
2022/12/06 00:29:20;;;;;;;36.45;20.13;;;;;;;10.47;78.17;101362.75;4920346;29;21010;-79
2022/12/06 00:31:48;;;;;;;35.85;20.65;;;;;;;10.38;77.57;101358.13;4909756;28;20051;-80
2022/12/06 00:34:24;;;;;;;33.13;19.70;;;;;;;10.38;77.75;101374.06;4937770;28;20145;-80
2022/12/06 00:37:01;;;;;;;35.20;21.17;;;;;;;10.31;77.87;101356.91;4938829;28;20726;-80
2022/12/06 00:39:32;;;;;;;37.15;21.98;;;;;;;8.85;78.49;101117.72;4939529;28;20054;-80
2022/12/06 00:42:16;;;;;;;32.78;19.60;;;;;;;10.06;78.40;101310.13;4923719;28;20058;-81
2022/12/06 00:44:52;;;;;;;35.42;20.17;;;;;;;9.03;77.82;101157.88;4938580;28;20054;-80
2022/12/06 00:47:20;;;;;;;35.20;20.95;;;;;;;9.84;78.57;101273.75;4937625;28;20125;-81
2022/12/06 00:49:49;;;;;;;33.05;19.27;;;;;;;10.10;77.80;101314.25;4938272;28;20058;-78
2022/12/06 00:52:19;;;;;;;28.15;18.63;;;;;;;10.22;78.45;101318.63;4921888;28;20527;-80
2022/12/06 00:54:46;;;;;;;33.47;18.52;;;;;;;10.44;77.33;101362.97;4936827;28;20210;-82
2022/12/06 00:57:12;;;;;;;32.15;19.27;;;;;;;10.34;76.86;101359.34;4921124;28;20141;-81
2022/12/06 00:59:39;;;;;;;31.52;17.83;;;;;;;10.43;77.38;101360.44;4922755;28;20840;-81
2022/12/06 01:02:06;;;;;;;27.90;17.40;;;;;;;10.28;77.11;101351.84;4925352;28;20189;-79
2022/12/06 01:04:33;;;;;;;31.73;18.42;;;;;;;10.42;77.52;101370.22;4936026;28;20051;-80
2022/12/06 01:06:59;;;;;;;30.38;19.30;;;;;;;10.44;77.34;101373.59;4937277;28;20120;-81
2022/12/06 01:09:29;;;;;;;28.45;17.83;;;;;;;10.23;76.77;101359.28;4938670;28;20506;-81
2022/12/06 01:11:57;;;;;;;35.28;19.65;;;;;;;10.30;77.88;101375.63;4954073;28;20429;-80
2022/12/06 01:14:24;;;;;;;34.35;19.95;;;;;;;10.24;77.37;101377.75;4937837;28;20054;-81
2022/12/06 01:16:54;;;;;;;39.88;20.67;;;;;;;10.33;78.28;101362.94;4952624;28;20084;-81
2022/12/06 01:19:24;;;;;;;30.08;19.23;;;;;;;10.39;77.74;101362.50;4937103;28;20055;-81
2022/12/06 01:21:51;;;;;;;32.75;18.98;;;;;;;10.35;76.80;101368.16;4935721;28;20050;-80
2022/12/06 01:24:18;;;;;;;29.92;18.65;;;;;;;10.36;77.20;101380.44;4953761;28;20616;-81
2022/12/06 01:26:45;;;;;;;31.33;17.88;;;;;;;10.30;77.68;101376.44;4937581;28;20062;-81
2022/12/06 01:29:13;;;;;;;28.13;18.13;;;;;;;10.16;77.56;101358.88;4937496;28;20055;-80
2022/12/06 01:31:42;;;;;;;34.75;18.30;;;;;;;10.16;77.13;101366.00;4955298;28;20047;-80
2022/12/06 01:34:15;;;;;;;34.38;18.75;;;;;;;9.34;78.07;101223.53;4956451;28;20060;-79
2022/12/06 01:36:42;;;;;;;32.83;18.52;;;;;;;9.69;77.11;101277.56;4936725;28;20543;-79
2022/12/06 01:39:10;;;;;;;29.77;17.38;;;;;;;10.24;77.54;101372.44;4937262;28;20054;-81
2022/12/06 01:41:40;;;;;;;30.10;19.92;;;;;;;9.80;77.16;101301.47;4936574;28;20051;-81
2022/12/06 01:44:35;;;;;;;31.30;18.98;;;;;;;10.16;76.76;101363.34;4937718;28;20496;-78
2022/12/06 01:47:02;;;;;;;29.80;17.92;;;;;;;9.99;76.96;101338.06;4934692;28;20129;-82
2022/12/06 01:49:35;;;;;;;29.95;18.65;;;;;;;9.74;77.39;101293.97;4939449;28;20464;-81
2022/12/06 01:52:09;;;;;;;34.67;18.60;;;;;;;10.06;77.40;101358.72;4941465;28;20569;-80
2022/12/06 01:54:36;;;;;;;30.15;19.23;;;;;;;9.49;77.31;101264.00;4934915;28;20474;-80
2022/12/06 01:57:05;;;;;;;35.53;19.02;;;;;;;9.92;77.41;101340.34;4936279;28;21141;-79
2022/12/06 01:59:32;;;;;;;33.13;17.67;;;;;;;9.76;76.84;101319.41;4953058;28;20715;-77
2022/12/06 02:01:59;;;;;;;28.58;18.38;;;;;;;9.80;77.53;101317.38;4953274;28;20322;-80
2022/12/06 02:04:27;;;;;;;34.45;17.98;;;;;;;10.01;76.83;101355.56;4951157;28;20082;-80
2022/12/06 02:06:55;;;;;;;32.35;18.40;;;;;;;9.90;77.39;101341.41;4959680;28;20161;-81
2022/12/06 02:09:23;;;;;;;31.70;18.98;;;;;;;9.81;77.18;101342.94;4944101;28;20065;-81
2022/12/06 02:11:56;;;;;;;30.85;18.88;;;;;;;9.84;77.85;101338.25;4939279;28;20434;-79
2022/12/06 02:14:30;;;;;;;31.08;18.83;;;;;;;9.69;77.14;101315.53;4941206;28;20158;-79
2022/12/06 02:17:34;;;;;;;32.90;20.17;;;;;;;9.95;77.09;101366.66;4953485;28;20061;-80
2022/12/06 02:20:20;;;;;;;34.75;20.80;;;;;;;9.96;77.51;101354.22;4936277;28;20081;-79
2022/12/06 02:23:02;;;;;;;31.30;19.40;;;;;;;9.93;78.07;101352.66;4935427;28;20160;-81
2022/12/06 02:26:02;;;;;;;28.20;18.38;;;;;;;9.91;77.01;101348.41;4937032;28;20600;-79
2022/12/06 02:29:01;;;;;;;33.60;19.30;;;;;;;9.89;77.43;101355.63;4917986;28;20133;-80
2022/12/06 02:31:41;;;;;;;33.08;19.00;;;;;;;9.39;78.40;101284.16;4932739;28;20121;-79
2022/12/06 02:34:41;;;;;;;28.33;17.60;;;;;;;9.67;77.80;101343.13;4955407;28;20138;-78
2022/12/06 02:37:21;;;;;;;33.25;19.42;;;;;;;9.73;78.50;101353.25;4933896;28;20140;-80
2022/12/06 02:40:00;;;;;;;36.60;19.50;;;;;;;9.69;77.68;101351.81;4971854;28;20082;-79
2022/12/06 02:42:36;;;;;;;33.10;19.27;;;;;;;9.53;77.54;101329.06;4972276;28;20064;-78
2022/12/06 02:45:16;;;;;;;32.92;17.85;;;;;;;9.56;77.53;101347.41;4972298;28;20299;-79
2022/12/06 02:47:47;;;;;;;30.45;17.90;;;;;;;9.25;78.01;101293.13;4950225;28;20523;-80
2022/12/06 02:50:18;;;;;;;29.85;18.17;;;;;;;9.48;78.56;101312.63;4944464;28;20454;-79
2022/12/06 02:52:49;;;;;;;;;;;;;;;9.72;78.57;101346.28;4940374;28;20399;-80
2022/12/06 02:55:18;;;;;;;32.28;19.52;;;;;;;9.64;78.18;101336.25;4953970;28;19933;-80
2022/12/06 02:57:48;;;;;;;36.30;18.48;;;;;;;9.34;77.42;101299.53;4952354;28;20106;-78
2022/12/06 03:00:27;;;;;;;34.78;20.00;;;;;;;9.54;77.43;101346.66;4937361;28;20054;-79
2022/12/06 03:03:20;;;;;;;31.90;18.88;;;;;;;9.64;78.55;101341.53;4974699;28;20119;-77
2022/12/06 03:06:02;;;;;;;;;;;;;;;9.62;78.00;101335.50;4910680;28;20058;-78
2022/12/06 03:08:49;;;;;;;34.15;18.45;;;;;;;9.58;77.94;101337.50;4972674;28;19922;-78
2022/12/06 03:11:17;;;;;;;36.58;18.92;;;;;;;9.55;77.92;101336.91;4962564;28;20455;-80
2022/12/06 03:13:58;;;;;;;33.15;18.95;;;;;;;9.09;77.87;101280.13;4971107;28;20125;-79
2022/12/06 03:16:45;;;;;;;28.40;17.77;;;;;;;9.30;78.10;101321.94;4956410;28;20551;-80
2022/12/06 03:19:22;;;;;;;31.08;19.27;;;;;;;9.26;78.13;101331.06;4942560;28;20517;-80
2022/12/06 03:21:55;;;;;;;32.80;19.92;;;;;;;9.34;78.76;101329.53;4957936;28;20059;-80
2022/12/06 03:24:26;;;;;;;31.77;18.83;;;;;;;9.16;78.58;101299.09;4941672;28;20489;-80
2022/12/06 03:26:57;;;;;;;33.47;20.25;;;;;;;9.12;78.46;101295.78;4955262;28;20464;-80
2022/12/06 03:29:30;;;;;;;36.10;20.50;;;;;;;9.31;78.54;101321.81;4936909;28;20243;-80
2022/12/06 03:32:01;;;;;;;35.42;19.65;;;;;;;9.25;78.30;101314.31;4940470;28;20222;-79
2022/12/06 03:34:35;;;;;;;36.67;20.45;;;;;;;9.28;78.73;101330.00;4956840;28;20149;-80
2022/12/06 03:37:05;;;;;;;34.00;20.25;;;;;;;9.35;79.17;101330.41;4952511;28;20133;-80
2022/12/06 03:39:45;;;;;;;36.15;20.70;;;;;;;9.39;78.87;101324.78;4940929;28;20061;-80
2022/12/06 03:42:13;;;;;;;39.97;19.88;;;;;;;9.36;77.81;101319.69;4939176;28;20580;-80
2022/12/06 03:44:42;;;;;;;35.95;19.52;;;;;;;9.31;77.68;101313.03;4940173;28;20054;-81
2022/12/06 03:47:17;;;;;;;34.80;19.73;;;;;;;9.23;78.50;101307.44;4940838;28;20150;-79
2022/12/06 03:49:49;;;;;;;32.08;19.50;;;;;;;9.32;78.47;101320.88;4960118;28;20055;-80
2022/12/06 03:52:15;;;;;;;36.15;21.17;;;;;;;9.19;78.00;101297.03;4957537;28;20507;-80
2022/12/06 03:54:45;;;;;;;36.90;20.52;;;;;;;9.15;78.09;101298.25;4956243;28;20046;-79
2022/12/06 03:57:13;;;;;;;35.85;20.77;;;;;;;9.38;78.87;101309.81;4939973;28;20548;-80
2022/12/06 03:59:41;;;;;;;32.53;20.90;;;;;;;9.20;79.36;101252.88;4943396;28;20448;-80
2022/12/06 04:02:12;;;;;;;38.08;20.58;;;;;;;9.57;77.66;101313.78;4963638;28;20062;-79
2022/12/06 04:04:41;;;;;;;34.75;19.13;;;;;;;9.33;77.46;101281.97;4964356;28;20054;-81
2022/12/06 04:07:10;;;;;;;35.28;19.85;;;;;;;9.55;78.64;101311.22;4942258;28;20424;-80
2022/12/06 04:09:55;;;;;;;33.15;19.92;;;;;;;9.58;77.71;101311.00;4955604;28;20057;-78
2022/12/06 04:15:09;;;;;;;34.97;21.20;;;;;;;9.30;76.50;101300.75;4945873;28;20557;-80
2022/12/06 04:20:23;;;;;;;39.03;21.17;;;;;;;9.06;77.60;101298.06;4941390;28;20059;-79
2022/12/06 04:23:02;;;;;;;33.22;20.80;;;;;;;8.91;78.57;101282.31;4940153;28;20086;-80
2022/12/06 04:25:39;;;;;;;35.45;20.85;;;;;;;8.99;78.97;101287.03;4941598;28;20111;-80
2022/12/06 04:39:07;;;;;;;37.58;20.17;;;;;;;10.24;76.75;101287.50;4961046;28;20046;-79
2022/12/06 04:44:19;;;;;;;36.70;20.25;;;;;;;9.69;73.97;101278.41;4963546;28;20057;-79
2022/12/06 04:46:45;;;;;;;31.77;19.10;;;;;;;9.53;74.90;101291.09;4974834;28;20449;-79
2022/12/06 04:49:12;;;;;;;40.90;21.50;;;;;;;9.31;75.48;101286.53;4960028;28;20047;-80
2022/12/06 04:51:39;;;;;;;36.90;19.25;;;;;;;9.32;77.09;101298.81;4974655;28;20070;-79
2022/12/06 04:54:06;;;;;;;33.45;18.30;;;;;;;8.48;77.64;101154.81;4990958;28;20294;-77
2022/12/06 04:56:33;;;;;;;36.88;21.67;;;;;;;9.42;77.78;101294.56;4960287;28;20105;-80
2022/12/06 04:59:00;;;;;;;34.83;21.05;;;;;;;9.50;77.89;101292.19;4974388;28;20463;-80
2022/12/06 05:01:26;;;;;;;33.13;20.10;;;;;;;9.47;76.26;101265.06;4974580;28;20489;-80
2022/12/06 05:03:53;;;;;;;31.10;19.13;;;;;;;9.37;75.21;101284.28;4954777;28;20063;-80
2022/12/06 05:06:20;;;;;;;38.80;19.17;;;;;;;9.22;74.93;101287.19;4937688;28;20242;-79
2022/12/06 05:08:50;;;;;;;33.65;19.42;;;;;;;8.85;75.69;101264.19;4939069;28;20666;-80
2022/12/06 05:11:17;;;;;;;35.22;19.95;;;;;;;8.60;76.05;101253.66;4955566;28;20055;-79
2022/12/06 05:13:46;;;;;;;38.80;21.58;;;;;;;8.74;77.29;101309.13;4940008;28;20168;-79
2022/12/06 05:16:13;;;;;;;37.20;19.05;;;;;;;8.53;77.04;101291.13;4938715;28;20125;-80
2022/12/06 05:18:44;;;;;;;35.22;20.52;;;;;;;8.51;77.39;101292.19;4953389;28;20462;-80
2022/12/06 05:21:18;;;;;;;34.53;19.75;;;;;;;8.39;78.08;101282.41;4938080;28;20421;-80
2022/12/06 05:23:48;;;;;;;37.28;20.80;;;;;;;8.54;77.87;101307.84;4938593;28;20160;-79
2022/12/06 05:26:17;;;;;;;35.53;18.67;;;;;;;8.46;77.99;101302.25;4956018;28;20046;-79
2022/12/06 05:28:45;;;;;;;37.55;21.10;;;;;;;8.45;78.21;101309.34;4955143;28;20495;-80
2022/12/06 05:31:12;;;;;;;31.58;19.85;;;;;;;8.14;78.64;101263.78;4953585;28;20061;-80
2022/12/06 05:33:39;;;;;;;34.58;18.63;;;;;;;8.51;78.77;101308.06;4942995;28;20054;-79
2022/12/06 05:36:18;;;;;;;30.85;18.38;;;;;;;8.53;78.39;101311.44;4956158;28;20050;-80
2022/12/06 05:38:46;;;;;;;31.65;19.05;;;;;;;8.42;78.81;101295.47;4942521;28;20535;-80
2022/12/06 05:41:18;;;;;;;41.17;19.27;;;;;;;8.42;78.56;101303.41;4941320;28;20055;-78
2022/12/06 05:43:45;;;;;;;36.83;19.75;;;;;;;8.24;78.32;101263.16;4942728;28;20082;-79
2022/12/06 05:46:13;;;;;;;38.53;19.88;;;;;;;8.51;78.86;101316.84;4939682;28;20170;-80
2022/12/06 05:48:40;;;;;;;39.65;20.95;;;;;;;8.42;78.84;101308.69;4940232;28;20470;-80
2022/12/06 05:51:07;;;;;;;37.35;21.40;;;;;;;8.39;78.53;101311.50;4940262;28;20067;-79
2022/12/06 05:53:34;;;;;;;43.28;22.05;;;;;;;8.30;78.70;101295.34;4939746;28;20050;-79
2022/12/06 05:56:11;;;;;;;38.65;20.33;;;;;;;8.31;79.01;101294.38;4955867;28;20050;-78
2022/12/06 05:58:38;;;;;;;44.92;21.95;;;;;;;7.63;79.46;101196.78;4942669;28;20132;-80
2022/12/06 06:01:06;;;;;;;36.97;21.48;;;;;;;8.44;79.59;101327.94;4938696;28;20391;-80
2022/12/06 06:03:33;;;;;;;105.93;82.85;;;;;;;8.47;79.19;101331.25;4935772;28;20259;-80
2022/12/06 06:06:02;;;;;;;45.65;25.15;;;;;;;8.22;79.24;101291.50;4953410;28;20050;-79
2022/12/06 06:08:29;;;;;;;38.45;21.98;;;;;;;8.36;79.68;101312.56;4937914;28;20639;-80
2022/12/06 06:10:57;;;;;;;38.10;21.35;;;;;;;8.18;80.08;101260.91;4938188;28;20428;-80
2022/12/06 06:13:24;;;;;;;34.55;20.00;;;;;;;8.73;78.71;101337.38;4939413;28;20548;-79
2022/12/06 06:15:54;;;;;;;33.00;18.75;;;;;;;8.56;78.61;101311.22;4951054;28;20053;-78
2022/12/06 06:18:27;;;;;;;34.78;20.70;;;;;;;8.58;78.12;101325.22;4918040;29;20062;-79
2022/12/06 06:20:57;;;;;;;38.55;21.48;;;;;;;8.27;78.70;101281.44;4937132;28;20417;-79
2022/12/06 06:23:26;;;;;;;40.35;21.60;;;;;;;8.39;78.70;101298.28;4927411;28;20580;-78
2022/12/06 06:25:53;;;;;;;35.65;21.08;;;;;;;8.61;78.53;101334.75;4940298;28;20082;-78
2022/12/06 06:28:22;;;;;;;33.08;19.83;;;;;;;8.43;79.32;101300.66;4938121;28;20511;-79
2022/12/06 06:30:49;;;;;;;38.25;20.98;;;;;;;8.60;79.37;101322.47;4939773;28;20141;-78
2022/12/06 06:33:20;;;;;;;37.83;22.02;;;;;;;8.72;79.42;101327.75;4937236;28;20673;-79
2022/12/06 06:35:47;;;;;;;42.00;21.30;;;;;;;8.81;78.52;101317.47;4936000;28;20436;-79
2022/12/06 06:38:14;;;;;;;41.00;22.15;;;;;;;8.62;78.38;101294.94;4951606;28;20520;-79
2022/12/06 06:40:41;;;;;;;40.70;22.98;;;;;;;8.81;78.44;101341.28;4952527;28;20686;-79
2022/12/06 06:43:22;;;;;;;44.38;23.50;;;;;;;8.83;78.61;101339.38;4938414;28;20579;-79
2022/12/06 06:45:54;;;;;;;37.45;22.00;;;;;;;8.87;77.90;101346.16;4949586;28;20168;-79
2022/12/06 06:48:22;;;;;;;44.80;24.55;;;;;;;8.77;78.82;101324.78;4938101;28;20112;-80
2022/12/06 06:50:50;;;;;;;44.50;23.63;;;;;;;8.78;78.96;101311.41;4938746;28;20055;-79
2022/12/06 06:53:23;;;;;;;44.78;24.27;;;;;;;8.82;78.92;101296.19;4936582;28;20047;-79
2022/12/06 06:55:52;;;;;;;44.63;25.10;;;;;;;9.11;77.63;101336.50;4938411;28;20154;-79
2022/12/06 06:58:19;;;;;;;46.75;25.10;;;;;;;8.28;77.56;101212.56;4937962;28;20228;-79
2022/12/06 07:00:51;;;;;;;44.08;26.15;;;;;;;8.69;77.86;101264.44;4936407;28;20332;-78
2022/12/06 07:03:19;;;;;;;43.67;23.85;;;;;;;9.05;77.80;101328.13;4938880;28;20162;-78
2022/12/06 07:06:04;;;;;;;43.20;25.35;;;;;;;9.17;77.77;101341.38;4922135;28;20048;-79
2022/12/06 07:08:30;;;;;;;41.65;24.88;;;;;;;9.10;77.08;101329.53;4904124;29;20138;-78
2022/12/06 07:10:58;;;;;;;53.03;27.05;;;;;;;9.13;77.18;101333.75;4904344;29;20055;-79
2022/12/06 07:13:27;;;;;;;45.58;27.00;;;;;;;9.05;77.46;101323.66;4904379;29;20062;-79
2022/12/06 07:15:54;;;;;;;43.55;25.98;;;;;;;8.99;78.14;101292.34;4901906;29;20381;-79
2022/12/06 07:18:21;;;;;;;47.40;26.73;;;;;;;9.08;77.25;101307.59;4918415;29;20058;-79
2022/12/06 07:20:51;;;;;;;49.10;27.05;;;;;;;9.25;76.86;101334.66;4920199;28;20050;-79
2022/12/06 07:23:18;;;;;;;51.90;27.58;;;;;;;9.16;77.14;101315.81;4922457;29;20062;-79
2022/12/06 07:25:44;;;;;;;47.70;25.85;;;;;;;9.24;76.79;101332.97;4908793;29;20157;-80
2022/12/06 07:28:11;;;;;;;55.03;26.60;;;;;;;9.30;77.02;101337.84;4939762;28;20786;-80
2022/12/06 07:30:38;;;;;;;52.53;27.83;;;;;;;8.85;76.51;101269.47;4939677;28;20054;-79
2022/12/06 07:33:06;;;;;;;48.55;26.65;;;;;;;9.25;76.27;101345.25;4945386;28;20058;-80
2022/12/06 07:35:36;;;;;;;52.38;26.20;;;;;;;9.03;76.96;101309.72;4943880;28;20057;-80
2022/12/06 07:38:31;;;;;;;53.60;29.52;;;;;;;9.00;77.41;101309.91;4944322;28;20567;-81
2022/12/06 07:44:59;;;;;;;44.33;26.48;;;;;;;9.03;77.22;101309.72;4926424;28;20556;-81
2022/12/06 07:46:45;;;;;;;47.45;27.58;;;;;;;9.41;77.55;101335.25;4946471;28;20062;-80
2022/12/06 07:49:16;;;;;;;55.72;28.95;;;;;;;9.67;78.30;101351.06;4944393;28;20058;-81
2022/12/06 07:51:44;;;;;;;50.97;28.85;;;;;;;9.77;77.58;101341.47;4944960;28;20051;-82
2022/12/06 07:54:12;;;;;;;53.33;29.25;;;;;;;9.84;77.33;101332.94;4942830;28;20723;-79
2022/12/06 07:56:40;;;;;;;42.17;24.30;;;;;;;9.97;77.08;101335.53;4927254;28;20198;-80
2022/12/06 07:59:07;;;;;;;52.58;28.88;;;;;;;9.88;76.35;101304.41;4927908;28;20535;-80
2022/12/06 08:01:34;;;;;;;50.67;29.70;;;;;;;10.05;75.46;101341.13;4943878;28;20058;-80
2022/12/06 08:04:06;;;;;;;53.35;28.77;;;;;;;10.24;76.33;101345.91;4944076;28;20067;-79
2022/12/06 08:06:34;;;;;;;44.20;26.95;;;;;;;10.13;75.85;101321.13;4927957;28;20174;-81
2022/12/06 08:09:05;;;;;;;44.92;25.45;;;;;;;9.86;74.35;101263.91;4938471;28;20089;-79
2022/12/06 08:11:33;;;;;;;62.78;29.45;;;;;;;10.07;73.61;101311.81;4924361;28;20051;-80
2022/12/06 08:14:00;;;;;;;45.25;27.05;;;;;;;10.22;74.66;101339.00;4905936;29;20067;-80
2022/12/06 08:16:26;;;;;;;46.47;27.85;;;;;;;10.00;74.12;101311.44;4943367;28;20702;-82
2022/12/06 08:18:55;;;;;;;51.85;26.77;;;;;;;10.29;74.66;101352.69;4943228;28;20046;-78
2022/12/06 08:21:24;;;;;;;44.38;25.55;;;;;;;10.38;75.26;101336.91;4927767;28;20046;-79
2022/12/06 08:23:54;;;;;;;46.17;25.63;;;;;;;10.33;73.55;101333.75;4938963;28;20042;-79
2022/12/06 08:26:24;;;;;;;48.75;26.10;;;;;;;10.53;73.84;101350.78;4937130;28;20539;-80
2022/12/06 08:28:53;;;;;;;37.28;24.80;;;;;;;10.24;73.45;101307.88;4940733;28;20697;-78
2022/12/06 08:31:22;;;;;;;41.83;25.13;;;;;;;10.53;74.19;101350.78;4910567;28;20137;-80
2022/12/06 08:33:49;;;;;;;38.80;23.33;;;;;;;10.52;73.69;101359.75;4929445;28;20047;-79
2022/12/06 08:36:18;;;;;;;40.08;23.60;;;;;;;10.58;74.93;101340.69;4943494;28;20054;-79
2022/12/06 08:38:46;;;;;;;35.50;22.10;;;;;;;10.68;73.14;101348.78;4924804;28;20062;-78
2022/12/06 08:44:01;;;;;;;35.28;21.77;;;;;;;10.36;71.94;101322.88;4942721;28;20066;-80
2022/12/06 08:46:29;;;;;;;40.08;22.33;;;;;;;9.95;72.24;101265.84;4926534;28;20528;-80
2022/12/06 08:49:00;;;;;;;41.38;21.17;;;;;;;9.92;72.42;101258.09;4926291;28;20153;-80
2022/12/06 08:51:31;;;;;;;36.45;21.10;;;;;;;10.03;71.25;101258.16;4927650;28;20392;-79
2022/12/06 08:54:02;;;;;;;37.10;19.20;;;;;;;10.60;71.37;101351.19;4923911;28;20062;-80
2022/12/06 08:56:29;;;;;;;36.75;21.38;;;;;;;10.52;71.28;101348.28;4939811;28;20054;-79
2022/12/06 08:58:59;;;;;;;37.85;20.60;;;;;;;10.15;73.08;101296.16;4926704;28;20655;-79
2022/12/06 09:01:29;;;;;;;33.03;19.92;;;;;;;10.31;71.92;101301.16;4926632;28;20393;-79
2022/12/06 09:04:07;;;;;;;34.85;20.83;;;;;;;10.42;71.27;101340.19;4942509;28;20058;-80
2022/12/06 09:06:39;;;;;;;33.95;20.02;;;;;;;9.98;71.58;101294.78;4925905;28;20501;-79
2022/12/06 09:09:12;;;;;;;45.05;21.58;;;;;;;8.84;73.36;101086.94;4920763;28;20608;-79
2022/12/06 09:11:39;;;;;;;39.70;20.38;;;;;;;10.43;72.25;101318.81;4924667;28;20070;-79
2022/12/06 09:14:08;;;;;;;33.08;19.42;;;;;;;9.98;69.95;101268.28;4921200;28;20416;-79
2022/12/06 09:16:35;;;;;;;30.80;19.27;;;;;;;10.31;70.13;101346.28;4923303;29;20087;-80
2022/12/06 09:19:03;;;;;;;31.80;18.60;;;;;;;10.46;71.56;101349.56;4923585;29;20091;-79
2022/12/06 09:21:41;;;;;;;29.85;17.83;;;;;;;10.31;71.18;101330.34;4923948;28;20169;-78
2022/12/06 09:24:15;;;;;;;32.78;19.80;;;;;;;10.30;71.90;101368.50;4924613;28;20505;-79
2022/12/06 09:26:42;;;;;;;34.03;19.00;;;;;;;9.57;73.21;101219.19;4923801;28;20043;-80
2022/12/06 09:29:14;;;;;;;38.33;19.65;;;;;;;10.53;71.84;101360.56;4924128;28;20444;-79
2022/12/06 09:31:40;;;;;;;42.88;20.02;;;;;;;10.31;71.19;101335.66;4937873;28;20254;-80
2022/12/06 09:34:09;;;;;;;39.03;20.88;;;;;;;10.57;72.17;101362.03;4921111;28;20062;-81
2022/12/06 09:36:54;;;;;;;31.83;18.25;;;;;;;10.58;72.81;101346.00;4937955;28;20051;-79
2022/12/06 09:39:30;;;;;;;41.15;21.33;;;;;;;10.33;71.55;101301.91;4938350;28;20460;-79
2022/12/06 09:42:26;;;;;;;41.97;19.38;;;;;;;10.63;70.51;101358.91;4937245;28;20047;-79
2022/12/06 09:45:23;;;;;;;31.17;19.02;;;;;;;10.58;71.14;101356.63;4938628;28;20062;-79
2022/12/06 09:48:19;;;;;;;31.63;16.88;;;;;;;10.12;70.17;101295.53;4925189;28;20603;-77
2022/12/06 09:51:04;;;;;;;30.27;15.82;;;;;;;10.51;70.20;101354.53;4935254;28;20475;-78
2022/12/06 09:54:06;;;;;;;32.10;17.55;;;;;;;10.45;70.58;101338.13;4939344;28;20063;-78
2022/12/06 09:56:44;;;;;;;31.38;18.08;;;;;;;10.56;70.66;101350.59;4936061;28;20148;-79
2022/12/06 09:59:30;;;;;;;28.42;16.55;;;;;;;10.61;69.71;101360.84;4940816;28;20070;-77
2022/12/06 10:02:20;;;;;;;26.63;15.77;;;;;;;10.29;70.08;101294.28;4924712;28;20055;-78
2022/12/06 10:05:26;;;;;;;29.02;15.98;;;;;;;10.73;69.27;101341.31;4943953;28;20564;-78
2022/12/06 10:08:23;;;;;;;29.85;17.15;;;;;;;10.24;70.13;101276.91;4958015;28;20715;-79
2022/12/06 10:11:18;;;;;;;30.60;17.15;;;;;;;10.64;70.10;101342.88;4960932;28;20789;-78
2022/12/06 10:14:01;;;;;;;32.00;16.85;;;;;;;10.51;70.48;101310.28;4938694;28;20408;-78
2022/12/06 10:16:30;;;;;;;;;;;;;;;10.77;70.57;101334.78;4933452;28;20394;-78
2022/12/06 10:19:32;;;;;;;33.90;18.25;;;;;;;10.66;70.53;101311.72;4941234;28;20361;-79
2022/12/06 10:22:18;;;;;;;28.40;15.80;;;;;;;10.83;70.53;101330.81;4926737;28;20058;-80
2022/12/06 10:25:16;;;;;;;36.97;18.75;;;;;;;10.62;70.71;101274.91;4921790;28;20141;-80
2022/12/06 10:28:22;;;;;;;34.20;18.75;;;;;;;11.01;68.69;101323.19;4912526;28;20456;-80
2022/12/06 10:31:03;;;;;;;37.40;20.67;;;;;;;10.90;68.66;101306.31;4936697;28;20378;-80
2022/12/06 10:33:50;;;;;;;38.67;18.75;;;;;;;10.89;68.97;101317.88;4919448;28;20545;-78
2022/12/06 10:36:42;;;;;;;43.35;20.83;;;;;;;10.45;69.56;101253.16;4936465;28;20553;-80
2022/12/06 10:39:35;;;;;;;;;;;;;;;10.80;70.12;101323.94;4939208;28;20050;-79
2022/12/06 10:42:14;;;;;;;36.28;18.90;;;;;;;10.84;70.15;101311.25;4900755;28;20494;-80
2022/12/06 10:44:56;;;;;;;40.45;22.35;;;;;;;10.67;70.48;101262.13;4934593;28;20058;-76
2022/12/06 10:47:40;;;;;;;41.95;21.48;;;;;;;11.00;69.55;101294.94;4940763;28;20394;-79
2022/12/06 10:50:20;;;;;;;42.50;22.90;;;;;;;11.02;68.82;101306.28;4923768;28;20118;-80
2022/12/06 10:52:58;;;;;;;41.35;22.83;;;;;;;10.12;69.89;101178.81;4941323;28;20054;-80
2022/12/06 10:55:42;;;;;;;47.50;23.83;;;;;;;10.90;68.95;101294.84;4941030;28;20055;-79
2022/12/06 10:58:22;;;;;;;38.92;22.35;;;;;;;10.96;70.02;101301.47;4943246;28;20535;-80
2022/12/06 11:00:59;;;;;;;41.92;22.95;;;;;;;10.51;70.17;101219.16;4926630;28;20658;-77
2022/12/06 11:03:43;;;;;;;44.42;22.13;;;;;;;11.03;68.35;101295.53;4942492;28;20063;-79
2022/12/06 11:06:24;;;;;;;47.05;23.00;;;;;;;10.91;69.05;101276.09;4937775;28;20434;-78
2022/12/06 11:08:58;;;;;;;44.38;24.42;;;;;;;10.73;69.39;101256.34;4926754;28;20591;-79
2022/12/06 11:11:35;;;;;;;43.10;22.88;;;;;;;10.95;69.61;101290.00;4945325;28;20568;-79
2022/12/06 11:14:37;;;;;;;40.63;24.27;;;;;;;10.96;70.35;101293.50;4947243;28;20540;-81
2022/12/06 11:17:13;;;;;;;40.60;22.10;;;;;;;10.72;70.04;101251.97;4944549;28;20077;-80
2022/12/06 11:19:49;;;;;;;53.58;24.55;;;;;;;10.78;68.89;101270.09;4944833;28;20426;-80
2022/12/06 11:22:38;;;;;;;45.40;24.20;;;;;;;10.80;70.42;101278.78;4927185;28;20058;-80
2022/12/06 11:25:31;;;;;;;46.10;24.38;;;;;;;11.03;70.42;101284.06;4954103;28;20086;-81
2022/12/06 11:28:20;;;;;;;48.50;24.92;;;;;;;11.02;70.07;101253.13;4942181;28;20168;-80
2022/12/06 11:30:58;;;;;;;47.00;26.05;;;;;;;11.14;69.65;101276.09;4943238;28;20055;-80
2022/12/06 11:33:32;;;;;;;39.75;21.33;;;;;;;11.19;69.45;101252.66;4942139;28;20531;-80
2022/12/06 11:36:02;;;;;;;36.75;20.33;;;;;;;10.94;69.56;101211.25;4943380;28;20854;-79
2022/12/06 11:38:29;;;;;;;47.10;24.33;;;;;;;11.27;70.09;101262.66;4922722;28;20047;-81
2022/12/06 11:40:57;;;;;;;47.60;25.67;;;;;;;11.24;68.66;101246.97;4925009;28;20057;-77
2022/12/06 11:43:31;;;;;;;53.88;27.98;;;;;;;11.21;68.60;101260.47;4939029;28;20058;-80
2022/12/06 11:46:00;;;;;;;48.15;27.65;;;;;;;11.14;68.62;101265.47;4924647;28;20309;-79
2022/12/06 11:48:31;;;;;;;36.28;20.77;;;;;;;10.81;70.41;101223.84;4941916;28;20050;-80
2022/12/06 11:50:58;;;;;;;50.78;26.92;;;;;;;10.92;70.95;101168.03;4942597;28;20348;-80
2022/12/06 11:53:43;;;;;;;43.63;21.85;;;;;;;11.45;69.34;101245.19;4927484;28;20084;-79
2022/12/06 11:56:26;;;;;;;46.33;26.85;;;;;;;11.30;68.96;101233.16;4924387;28;20448;-80
2022/12/06 11:59:09;;;;;;;47.92;26.63;;;;;;;11.11;70.38;101217.84;4941436;28;20053;-82
2022/12/06 12:01:45;;;;;;;47.47;27.67;;;;;;;10.94;70.07;101197.97;4941003;28;20621;-80
2022/12/06 12:04:25;;;;;;;51.50;23.52;;;;;;;11.16;70.09;101226.28;4959854;28;20071;-81
2022/12/06 12:07:07;;;;;;;45.47;25.05;;;;;;;11.03;69.92;101210.50;4941546;28;20054;-80
2022/12/06 12:09:46;;;;;;;49.63;26.60;;;;;;;10.90;70.71;101216.00;4942189;28;20579;-80